Terminal Aerodrome Forecast
Issued by NWS Cleveland, OH

Home | Current Version | Previous Version | Text Only | Print | Product List | Glossary On
Versions: 1 2 3 4 5 6 7 8 9 10 11 12 13 14 15
991
FTUS41 KCLE 281244 AAA
TAFCAK
TAF AMD
KCAK 281244Z 2813/2912 21007KT P6SM BKN150
     FM290600 14007KT 5SM -SHRA OVC025
     FM290900 22007KT 5SM -SHRA OVC007=

USA.gov is the U.S. government's official web portal to all federal, state and local government web resources and services.